createdAt,value
2022-08-05T00:01:28.367Z,99.90
2022-08-05T00:03:57.025Z,99.90
2022-08-05T00:06:29.517Z,99.90
2022-08-05T00:09:00.575Z,99.90
2022-08-05T00:11:34.576Z,99.90
2022-08-05T00:14:02.166Z,99.90
2022-08-05T00:16:35.590Z,99.90
2022-08-05T00:19:02.549Z,99.90
2022-08-05T00:21:30.516Z,99.90
2022-08-05T00:24:05.070Z,99.90
2022-08-05T00:26:37.557Z,99.90
2022-08-05T00:29:04.269Z,99.90
2022-08-05T00:31:53.427Z,99.90
2022-08-05T00:34:53.479Z,99.90
2022-08-05T00:37:13.094Z,99.90
2022-08-05T00:39:57.232Z,99.90
2022-08-05T00:42:38.358Z,99.90
2022-08-05T00:45:08.392Z,99.90
2022-08-05T00:47:53.318Z,99.90
2022-08-05T00:50:25.295Z,99.90
2022-08-05T00:52:53.239Z,99.90
2022-08-05T00:55:20.137Z,99.90
2022-08-05T00:57:58.199Z,99.90
2022-08-05T01:00:26.897Z,99.90
2022-08-05T01:02:53.612Z,99.90
2022-08-05T01:05:20.254Z,99.90
2022-08-05T01:08:42.110Z,99.90
2022-08-05T01:10:40.470Z,99.90
2022-08-05T01:13:58.715Z,99.90
2022-08-05T01:16:39.035Z,99.90
2022-08-05T01:19:09.571Z,99.90
2022-08-05T01:21:52.645Z,99.90
2022-08-05T01:24:32.422Z,99.90
2022-08-05T01:27:17.976Z,99.90
2022-08-05T01:29:48.826Z,99.90
2022-08-05T01:32:19.662Z,99.90
2022-08-05T01:34:57.152Z,99.90
2022-08-05T01:37:31.300Z,99.90
2022-08-05T01:40:01.029Z,99.90
2022-08-05T01:42:29.653Z,99.90
2022-08-05T01:44:56.709Z,99.90
2022-08-05T01:47:38.792Z,99.90
2022-08-05T01:50:15.196Z,99.90
2022-08-05T01:52:42.965Z,99.90
2022-08-05T01:55:12.130Z,99.90
2022-08-05T01:58:12.246Z,99.90
2022-08-05T02:00:30.713Z,99.90
2022-08-05T02:02:59.999Z,99.90
2022-08-05T02:05:34.310Z,99.90
2022-08-05T02:08:03.014Z,99.90
2022-08-05T02:10:32.929Z,99.90
2022-08-05T02:13:15.788Z,99.90
2022-08-05T02:15:55.359Z,99.90
2022-08-05T02:18:35.237Z,99.90
2022-08-05T02:21:14.974Z,99.90
2022-08-05T02:23:43.637Z,99.90
2022-08-05T02:26:13.478Z,99.90
2022-08-05T02:28:41.648Z,99.90
2022-08-05T02:31:14.542Z,99.90
2022-08-05T02:33:44.982Z,99.90
2022-08-05T02:36:17.689Z,99.90
2022-08-05T02:38:53.702Z,99.90
2022-08-05T02:41:22.785Z,99.90
2022-08-05T02:44:06.277Z,99.90
2022-08-05T02:46:53.323Z,99.90
2022-08-05T02:49:26.410Z,99.90
2022-08-05T02:52:04.313Z,99.90
2022-08-05T02:54:35.632Z,99.90
2022-08-05T02:57:05.202Z,99.90
2022-08-05T02:59:50.425Z,99.90
2022-08-05T03:02:19.070Z,99.90
2022-08-05T03:04:48.039Z,99.90
2022-08-05T03:07:40.400Z,99.90
2022-08-05T03:10:08.474Z,99.90
2022-08-05T03:12:39.781Z,99.90
2022-08-05T03:15:09.155Z,99.90
2022-08-05T03:17:41.602Z,99.90
2022-08-05T03:20:09.072Z,99.90
2022-08-05T03:22:37.005Z,99.90
2022-08-05T03:25:31.653Z,99.90
2022-08-05T03:27:59.944Z,99.90
2022-08-05T03:30:33.448Z,99.90
2022-08-05T03:33:01.100Z,99.90
2022-08-05T03:35:28.934Z,99.90
2022-08-05T03:37:59.417Z,99.90
2022-08-05T03:40:32.120Z,99.90
2022-08-05T03:43:01.519Z,99.90
2022-08-05T03:45:57.622Z,99.90
2022-08-05T03:48:29.223Z,99.90
2022-08-05T03:52:38.455Z,99.90
2022-08-05T03:55:53.956Z,99.90
2022-08-05T03:57:01.647Z,99.90
2022-08-05T04:00:09.715Z,99.90
2022-08-05T04:02:52.230Z,99.90
2022-08-05T04:05:28.004Z,99.90
2022-08-05T04:08:01.622Z,99.90
2022-08-05T04:10:37.116Z,99.90
2022-08-05T04:13:05.392Z,99.90
2022-08-05T04:15:33.137Z,99.90
2022-08-05T04:18:03.908Z,99.90
2022-08-05T04:20:33.783Z,99.90
2022-08-05T04:23:00.442Z,99.90
2022-08-05T04:25:56.715Z,99.90
2022-08-05T04:28:14.548Z,99.90
2022-08-05T04:30:41.733Z,99.90
2022-08-05T04:33:09.743Z,99.90
2022-08-05T04:36:16.439Z,99.90
2022-08-05T04:38:39.463Z,99.90
2022-08-05T04:41:07.293Z,99.90
2022-08-05T04:43:34.313Z,99.90
2022-08-05T04:46:01.089Z,99.90
2022-08-05T04:48:28.470Z,99.90
2022-08-05T04:51:02.581Z,99.90
2022-08-05T04:53:33.610Z,99.90
2022-08-05T04:56:14.643Z,99.90
2022-08-05T04:58:49.738Z,99.90
2022-08-05T05:02:04.082Z,99.90
2022-08-05T05:04:03.591Z,99.90
2022-08-05T05:06:36.067Z,99.90
2022-08-05T05:09:17.234Z,99.90
2022-08-05T05:11:54.481Z,99.90
2022-08-05T05:14:28.046Z,99.90
2022-08-05T05:16:58.800Z,99.90
2022-08-05T05:19:27.406Z,99.90
2022-08-05T05:22:03.672Z,99.90
2022-08-05T05:24:58.365Z,99.90
2022-08-05T05:27:44.712Z,99.90
2022-08-05T05:30:15.674Z,99.90
2022-08-05T05:33:00.747Z,99.90
2022-08-05T05:35:31.644Z,99.90
2022-08-05T05:38:08.906Z,99.90
2022-08-05T05:40:36.305Z,99.90
2022-08-05T05:43:03.174Z,99.90
2022-08-05T05:45:30.048Z,99.90
2022-08-05T05:48:06.679Z,99.90
2022-08-05T05:50:42.529Z,99.90
2022-08-05T05:53:21.399Z,99.90
2022-08-05T05:55:52.097Z,99.90
2022-08-05T05:58:31.753Z,99.90
2022-08-05T06:01:02.427Z,99.90
2022-08-05T06:03:53.971Z,99.90
2022-08-05T06:06:27.720Z,99.90
2022-08-05T06:08:54.863Z,96.60
2022-08-05T06:11:21.512Z,92.00
2022-08-05T06:13:50.593Z,85.00
2022-08-05T06:16:28.885Z,78.50
2022-08-05T06:19:00.888Z,73.60
2022-08-05T06:21:37.603Z,70.40
2022-08-05T06:24:06.216Z,66.20
2022-08-05T06:26:35.096Z,63.90
2022-08-05T06:29:23.622Z,61.50
2022-08-05T06:31:50.618Z,60.70
2022-08-05T06:34:20.134Z,59.20
2022-08-05T06:36:56.910Z,59.20
2022-08-05T06:39:27.236Z,58.70
2022-08-05T06:41:56.090Z,61.70
2022-08-05T06:44:25.403Z,60.80
2022-08-05T06:46:52.800Z,60.00
2022-08-05T06:49:21.513Z,59.20
2022-08-05T06:52:08.016Z,58.80
2022-08-05T06:54:54.621Z,56.70
2022-08-05T06:57:57.294Z,54.00
2022-08-05T07:00:09.828Z,53.30
2022-08-05T07:02:43.543Z,53.40
2022-08-05T07:05:14.388Z,51.30
2022-08-05T07:07:48.874Z,52.30
2022-08-05T07:10:16.508Z,50.40
2022-08-05T07:13:02.564Z,50.70
2022-08-05T07:16:01.141Z,49.60
2022-08-05T07:18:31.835Z,50.10
2022-08-05T07:20:58.836Z,49.00
2022-08-05T07:23:32.585Z,48.60
2022-08-05T07:25:59.465Z,48.20
2022-08-05T07:28:26.512Z,47.90
2022-08-05T07:30:54.909Z,48.30
2022-08-05T07:33:36.409Z,48.40
2022-08-05T07:36:20.762Z,49.70
2022-08-05T07:38:48.957Z,50.20
2022-08-05T07:42:08.645Z,49.70
2022-08-05T07:44:05.602Z,49.30
2022-08-05T07:46:41.343Z,51.20
2022-08-05T07:49:14.844Z,51.50
2022-08-05T07:51:54.038Z,50.50
2022-08-05T07:54:31.286Z,49.00
2022-08-05T07:57:16.795Z,49.00
2022-08-05T07:59:49.510Z,48.90
2022-08-05T08:02:17.801Z,49.20
2022-08-05T08:04:46.048Z,48.90
2022-08-05T08:07:13.167Z,47.70
2022-08-05T08:09:39.922Z,48.60
2022-08-05T08:12:15.915Z,47.60
2022-08-05T08:14:53.741Z,47.40
2022-08-05T08:17:21.707Z,48.70
2022-08-05T08:20:10.080Z,49.50
2022-08-05T08:22:35.895Z,50.00
2022-08-05T08:25:02.838Z,49.70
2022-08-05T08:27:38.003Z,49.40
2022-08-05T08:30:29.936Z,49.50
2022-08-05T08:33:02.603Z,51.40
2022-08-05T08:35:34.984Z,50.00
2022-08-05T08:38:08.043Z,50.20
2022-08-05T08:40:35.328Z,50.90
2022-08-05T08:44:56.469Z,50.60
2022-08-05T08:45:50.234Z,49.90
2022-08-05T08:48:41.590Z,51.40
2022-08-05T08:52:01.768Z,53.60
2022-08-05T08:53:51.964Z,51.50
2022-08-05T08:56:20.971Z,52.20
2022-08-05T08:58:49.576Z,50.90
2022-08-05T09:01:18.771Z,51.90
2022-08-05T09:03:48.216Z,53.60
2022-08-05T09:06:21.425Z,52.90
2022-08-05T09:08:50.815Z,53.40
2022-08-05T09:11:17.576Z,52.80
2022-08-05T09:14:55.395Z,53.10
2022-08-05T09:16:51.617Z,52.90
2022-08-05T09:19:19.166Z,52.20
2022-08-05T09:22:24.909Z,50.70
2022-08-05T09:24:42.584Z,52.70
2022-08-05T09:27:09.591Z,52.20
2022-08-05T09:29:44.754Z,52.00
2022-08-05T09:32:40.934Z,51.10
2022-08-05T09:35:09.095Z,50.90
2022-08-05T09:38:12.343Z,50.90
2022-08-05T09:40:29.590Z,51.40
2022-08-05T09:42:56.442Z,52.20
2022-08-05T09:46:07.915Z,52.70
2022-08-05T09:48:21.017Z,53.40
2022-08-05T09:50:51.460Z,54.20
2022-08-05T09:53:26.051Z,54.30
2022-08-05T09:56:13.042Z,55.50
2022-08-05T09:58:41.973Z,56.40
2022-08-05T10:01:14.615Z,57.30
2022-08-05T10:03:59.153Z,57.90
2022-08-05T10:06:27.814Z,56.80
2022-08-05T10:08:55.629Z,56.00
2022-08-05T10:11:22.821Z,56.50
2022-08-05T10:13:49.856Z,54.30
2022-08-05T10:16:52.751Z,53.30
2022-08-05T10:19:23.870Z,53.30
2022-08-05T10:22:08.116Z,53.80
2022-08-05T10:24:39.787Z,55.10
2022-08-05T10:27:07.590Z,54.50
2022-08-05T10:30:06.608Z,55.50
2022-08-05T10:32:53.354Z,54.60
2022-08-05T10:35:10.566Z,55.20
2022-08-05T10:37:44.573Z,55.40
2022-08-05T10:40:19.567Z,54.70
2022-08-05T10:42:47.802Z,52.30
2022-08-05T10:45:23.769Z,54.20
2022-08-05T10:48:31.127Z,54.10
2022-08-05T10:51:01.534Z,52.80
2022-08-05T10:53:34.694Z,55.00
2022-08-05T10:56:14.667Z,53.30
2022-08-05T10:58:58.483Z,52.50
2022-08-05T11:01:54.928Z,55.30
2022-08-05T11:04:28.270Z,55.90
2022-08-05T11:06:58.051Z,53.90
2022-08-05T11:09:39.276Z,55.30
2022-08-05T11:12:31.247Z,55.20
2022-08-05T11:15:19.353Z,53.60
2022-08-05T11:18:09.544Z,52.30
2022-08-05T11:20:41.452Z,56.80
2022-08-05T11:23:33.297Z,53.20
2022-08-05T11:26:32.096Z,53.90
2022-08-05T11:29:11.646Z,54.00
2022-08-05T11:31:56.271Z,52.70
2022-08-05T11:34:37.604Z,53.20
2022-08-05T11:37:06.234Z,55.50
2022-08-05T11:40:00.202Z,53.20
2022-08-05T11:42:31.568Z,52.70
2022-08-05T11:45:02.389Z,54.50
2022-08-05T11:47:49.484Z,53.90
2022-08-05T11:50:17.271Z,54.00
2022-08-05T11:52:48.883Z,54.20
2022-08-05T11:55:16.360Z,55.10
2022-08-05T11:58:09.771Z,55.40
2022-08-05T12:00:38.447Z,53.30
2022-08-05T12:03:29.242Z,54.10
2022-08-05T12:06:03.111Z,54.40
2022-08-05T12:08:33.340Z,56.50
2022-08-05T12:11:06.038Z,54.20
2022-08-05T12:13:49.228Z,55.90
2022-08-05T12:16:18.122Z,52.20
2022-08-05T12:18:52.201Z,53.30
2022-08-05T12:21:30.610Z,54.30
2022-08-05T12:24:08.881Z,53.50
2022-08-05T12:26:36.980Z,52.00
2022-08-05T12:29:05.334Z,53.90
2022-08-05T12:31:47.629Z,52.10
2022-08-05T12:34:23.809Z,51.60
2022-08-05T12:36:53.569Z,51.20
2022-08-05T12:39:20.870Z,52.40
2022-08-05T12:41:48.698Z,51.20
2022-08-05T12:44:28.656Z,51.30
2022-08-05T12:47:01.824Z,52.30
2022-08-05T12:50:03.252Z,51.70
2022-08-05T12:52:30.394Z,53.10
2022-08-05T12:55:15.737Z,52.00
2022-08-05T12:58:39.029Z,51.80
2022-08-05T13:02:01.159Z,50.50
2022-08-05T13:03:19.961Z,51.70
2022-08-05T13:05:50.039Z,52.70
2022-08-05T13:08:19.638Z,51.80
2022-08-05T13:10:50.682Z,50.70
2022-08-05T13:14:06.132Z,51.30
2022-08-05T13:16:11.921Z,50.20
2022-08-05T13:18:50.678Z,52.00
2022-08-05T13:21:17.337Z,50.00
2022-08-05T13:23:50.835Z,51.30
2022-08-05T13:26:20.178Z,51.00
2022-08-05T13:28:49.604Z,52.50
2022-08-05T13:31:20.023Z,51.00
2022-08-05T13:34:22.600Z,50.30
2022-08-05T13:36:52.378Z,50.50
2022-08-05T13:39:24.649Z,51.60
2022-08-05T13:42:05.933Z,51.30
2022-08-05T13:44:32.676Z,51.30
2022-08-05T13:47:04.747Z,51.10
2022-08-05T13:49:35.613Z,52.20
2022-08-05T13:52:11.638Z,52.60
2022-08-05T13:54:38.687Z,51.30
2022-08-05T13:57:06.519Z,52.70
2022-08-05T13:59:33.332Z,53.00
2022-08-05T14:02:03.100Z,52.20
2022-08-05T14:04:51.159Z,52.40
2022-08-05T14:07:56.344Z,52.60
2022-08-05T14:10:09.356Z,54.20
2022-08-05T14:12:36.617Z,52.20
2022-08-05T14:15:05.927Z,52.80
2022-08-05T14:17:50.541Z,53.30
2022-08-05T14:20:21.697Z,52.10
2022-08-05T14:22:54.379Z,52.90
2022-08-05T14:25:22.456Z,52.30
2022-08-05T14:27:50.874Z,51.20
2022-08-05T14:30:20.128Z,50.80
2022-08-05T14:32:47.663Z,51.60
2022-08-05T14:35:14.413Z,51.50
2022-08-05T14:37:45.307Z,51.50
2022-08-05T14:40:16.666Z,51.90
2022-08-05T14:42:43.899Z,51.20
2022-08-05T14:45:10.786Z,52.00
2022-08-05T14:48:03.543Z,52.60
2022-08-05T14:50:25.357Z,53.80
2022-08-05T14:52:57.740Z,54.00
2022-08-05T14:55:38.356Z,53.50
2022-08-05T14:58:11.241Z,54.00
2022-08-05T15:00:39.705Z,54.50
2022-08-05T15:03:27.210Z,55.10
2022-08-05T15:06:07.576Z,55.20
2022-08-05T15:08:59.315Z,55.00
2022-08-05T15:11:53.135Z,55.50
2022-08-05T15:14:33.314Z,56.10
2022-08-05T15:17:01.128Z,55.40
2022-08-05T15:19:27.896Z,55.50
2022-08-05T15:22:00.047Z,58.00
2022-08-05T15:24:27.565Z,58.30
2022-08-05T15:26:55.998Z,57.30
2022-08-05T15:29:23.712Z,58.10
2022-08-05T15:31:56.606Z,57.20
2022-08-05T15:34:32.105Z,57.20
2022-08-05T15:37:04.839Z,57.20
2022-08-05T15:40:58.762Z,57.90
2022-08-05T15:42:55.071Z,56.10
2022-08-05T15:45:06.916Z,55.90
2022-08-05T15:47:36.438Z,56.80
2022-08-05T15:50:03.951Z,57.10
2022-08-05T15:52:53.128Z,57.50
2022-08-05T15:55:19.888Z,58.10
2022-08-05T15:57:52.149Z,58.80
2022-08-05T16:00:26.220Z,59.20
2022-08-05T16:03:05.619Z,59.70
2022-08-05T16:05:32.309Z,60.00
2022-08-05T16:07:59.075Z,60.90
2022-08-05T16:10:27.125Z,61.10
2022-08-05T16:12:56.029Z,60.80
2022-08-05T16:15:23.450Z,61.00
2022-08-05T16:17:57.716Z,61.00
2022-08-05T16:20:25.442Z,61.10
2022-08-05T16:22:52.114Z,61.30
2022-08-05T16:25:18.805Z,62.70
2022-08-05T16:28:05.067Z,62.40
2022-08-05T16:30:34.192Z,63.40
2022-08-05T16:33:02.786Z,63.40
2022-08-05T16:35:33.467Z,64.20
2022-08-05T16:38:01.854Z,64.50
2022-08-05T16:40:36.886Z,64.20
2022-08-05T16:43:04.345Z,64.30
2022-08-05T16:46:07.209Z,64.50
2022-08-05T16:48:25.978Z,64.40
2022-08-05T16:50:59.803Z,65.00
2022-08-05T16:53:31.835Z,64.80
2022-08-05T16:55:59.568Z,65.20
2022-08-05T16:58:26.265Z,65.10
2022-08-05T17:00:53.112Z,64.90
2022-08-05T17:03:20.852Z,65.10
2022-08-05T17:05:53.697Z,65.50
2022-08-05T17:08:36.799Z,65.20
2022-08-05T17:11:08.224Z,65.90
2022-08-05T17:13:37.143Z,66.10
2022-08-05T17:16:27.914Z,66.20
2022-08-05T17:18:55.004Z,66.10
2022-08-05T17:21:23.511Z,66.30
2022-08-05T17:24:04.520Z,66.60
2022-08-05T17:26:35.407Z,66.80
2022-08-05T17:29:04.206Z,67.20
2022-08-05T17:31:57.356Z,67.30
2022-08-05T17:34:21.022Z,67.50
2022-08-05T17:36:57.061Z,67.20
2022-08-05T17:39:33.559Z,67.10
2022-08-05T17:42:17.881Z,67.30
2022-08-05T17:44:50.458Z,67.50
2022-08-05T17:47:23.043Z,67.20
2022-08-05T17:50:04.005Z,67.10
2022-08-05T17:52:53.201Z,66.70
2022-08-05T17:55:21.869Z,67.00
2022-08-05T17:57:50.278Z,67.60
2022-08-05T18:00:18.555Z,67.90
2022-08-05T18:02:47.193Z,68.10
2022-08-05T18:05:17.467Z,68.60
2022-08-05T18:07:44.617Z,68.90
2022-08-05T18:10:20.488Z,69.40
2022-08-05T18:12:48.436Z,69.30
2022-08-05T18:15:17.412Z,69.50
2022-08-05T18:17:59.026Z,69.80
2022-08-05T18:20:32.030Z,70.10
2022-08-05T18:23:00.731Z,70.30
2022-08-05T18:25:36.884Z,70.60
2022-08-05T18:28:06.571Z,71.10
2022-08-05T18:30:33.731Z,71.30
2022-08-05T18:33:01.110Z,71.80
2022-08-05T18:35:59.640Z,71.80
2022-08-05T18:38:19.093Z,72.50
2022-08-05T18:41:55.278Z,72.70
2022-08-05T18:43:38.006Z,72.80
2022-08-05T18:46:09.752Z,73.10
2022-08-05T18:48:41.581Z,73.10
2022-08-05T18:52:06.598Z,73.30
2022-08-05T18:54:14.324Z,73.60
2022-08-05T18:56:40.980Z,73.50
2022-08-05T18:59:43.409Z,73.60
2022-08-05T19:01:57.060Z,73.50
2022-08-05T19:04:25.654Z,74.00
2022-08-05T19:06:53.764Z,74.10
2022-08-05T19:09:21.280Z,74.20
2022-08-05T19:12:00.210Z,74.80
2022-08-05T19:14:59.570Z,74.90
2022-08-05T19:17:15.486Z,75.00
2022-08-05T19:19:46.962Z,75.30
2022-08-05T19:22:17.260Z,75.90
2022-08-05T19:24:56.127Z,76.30
2022-08-05T19:27:24.239Z,77.30
2022-08-05T19:29:57.212Z,78.50
2022-08-05T19:32:26.250Z,78.50
2022-08-05T19:34:55.856Z,79.80
2022-08-05T19:37:29.997Z,80.60
2022-08-05T19:40:10.875Z,81.70
2022-08-05T19:42:38.874Z,82.40
2022-08-05T19:45:07.085Z,82.80
2022-08-05T19:47:34.704Z,83.70
2022-08-05T19:50:11.815Z,84.10
2022-08-05T19:52:39.277Z,84.80
2022-08-05T19:56:11.520Z,85.50
2022-08-05T19:58:19.514Z,85.90
2022-08-05T20:00:40.351Z,86.70
2022-08-05T20:03:08.937Z,86.80
2022-08-05T20:05:50.033Z,87.60
2022-08-05T20:08:17.463Z,88.10
2022-08-05T20:10:44.148Z,88.40
2022-08-05T20:13:16.207Z,88.80
2022-08-05T20:15:52.406Z,89.50
2022-08-05T20:18:34.030Z,89.80
2022-08-05T20:21:04.737Z,90.00
2022-08-05T20:23:40.766Z,90.10
2022-08-05T20:26:17.722Z,90.20
2022-08-05T20:28:45.364Z,90.50
2022-08-05T20:31:12.103Z,90.70
2022-08-05T20:33:38.771Z,90.80
2022-08-05T20:36:10.097Z,90.90
2022-08-05T20:38:38.102Z,91.20
2022-08-05T20:41:08.315Z,91.20
2022-08-05T20:44:00.428Z,91.50
2022-08-05T20:46:24.987Z,91.70
2022-08-05T20:48:52.215Z,91.80
2022-08-05T20:51:18.883Z,92.00
2022-08-05T20:53:55.222Z,92.60
2022-08-05T20:56:28.911Z,92.70
2022-08-05T20:58:56.793Z,92.80
2022-08-05T21:01:37.170Z,92.70
2022-08-05T21:04:07.218Z,92.80
2022-08-05T21:06:37.302Z,93.10
2022-08-05T21:09:06.972Z,93.30
2022-08-05T21:12:08.154Z,93.50
2022-08-05T21:14:20.432Z,92.50
2022-08-05T21:16:53.460Z,92.50
2022-08-05T21:19:20.312Z,92.30
2022-08-05T21:21:50.511Z,92.50
2022-08-05T21:24:19.546Z,92.80
2022-08-05T21:26:56.148Z,93.10
2022-08-05T21:29:26.178Z,93.40
2022-08-05T21:31:53.782Z,93.60
2022-08-05T21:34:20.868Z,94.30
2022-08-05T21:36:50.801Z,94.50
2022-08-05T21:39:27.007Z,95.30
2022-08-05T21:42:01.984Z,95.60
2022-08-05T21:44:29.771Z,96.30
2022-08-05T21:46:57.974Z,97.30
2022-08-05T21:49:56.861Z,98.20
2022-08-05T21:52:22.710Z,98.70
2022-08-05T21:54:55.047Z,99.20
2022-08-05T21:57:31.219Z,99.70
2022-08-05T22:00:06.000Z,99.90
2022-08-05T22:02:33.402Z,99.90
2022-08-05T22:05:00.368Z,99.90
2022-08-05T22:07:40.362Z,99.90
2022-08-05T22:10:15.696Z,99.90
2022-08-05T22:12:44.963Z,99.90
2022-08-05T22:16:00.887Z,99.90
2022-08-05T22:18:04.720Z,99.90
2022-08-05T22:20:31.459Z,99.90
2022-08-05T22:23:21.383Z,99.90
2022-08-05T22:26:10.591Z,99.90
2022-08-05T22:28:38.637Z,99.90
2022-08-05T22:31:05.971Z,99.90
2022-08-05T22:33:58.112Z,99.90
2022-08-05T22:36:23.853Z,99.90
2022-08-05T22:38:51.346Z,99.90
2022-08-05T22:41:26.436Z,99.90
2022-08-05T22:44:05.134Z,99.90
2022-08-05T22:46:31.976Z,99.90
2022-08-05T22:49:01.944Z,99.90
2022-08-05T22:52:02.752Z,99.90
2022-08-05T22:54:15.300Z,99.90
2022-08-05T22:56:42.098Z,99.90
2022-08-05T22:59:43.663Z,99.90
2022-08-05T23:02:05.610Z,99.90
2022-08-05T23:04:34.847Z,99.90
2022-08-05T23:07:01.743Z,99.90
2022-08-05T23:09:57.666Z,99.90
2022-08-05T23:12:17.784Z,99.90
2022-08-05T23:14:44.770Z,99.90
2022-08-05T23:17:35.051Z,99.90
2022-08-05T23:20:16.326Z,99.90
2022-08-05T23:22:47.451Z,99.90
2022-08-05T23:25:17.439Z,99.90
2022-08-05T23:28:01.791Z,99.90
2022-08-05T23:30:29.091Z,99.90
2022-08-05T23:32:57.911Z,99.90
2022-08-05T23:35:34.063Z,99.90
2022-08-05T23:38:01.046Z,99.90
2022-08-05T23:40:30.832Z,99.90
2022-08-05T23:42:57.498Z,99.90
2022-08-05T23:45:24.209Z,99.90
2022-08-05T23:47:53.572Z,99.90
2022-08-05T23:50:20.600Z,99.90
2022-08-05T23:52:50.353Z,99.90
2022-08-05T23:55:18.018Z,99.90
2022-08-05T23:57:44.745Z,99.90
